Time;durP1;ratioP1;P1;durP2;ratioP2;P2;SDS_P1;SDS_P2;PMS_P1;PMS_P2;Temp;Humidity;BMP_temperature;BMP_pressure;BME280_temperature;BME280_humidity;BME280_pressure;Samples;Min_cycle;Max_cycle;Signal;HPM_P1;HPM_P2
2023/03/22 00:01:57;;;;;;;41.70;23.10;;;5.30;99.90;;;;;;20985375;28;20036;-47
2023/03/22 00:11:59;;;;;;;39.95;24.38;;;5.20;99.90;;;;;;20984546;28;20091;-50
2023/03/22 00:22:00;;;;;;;40.20;23.67;;;5.40;99.90;;;;;;20994249;28;20025;-50
2023/03/22 00:32:03;;;;;;;39.20;25.23;;;5.30;99.90;;;;;;20999408;28;20076;-48
2023/03/22 00:42:05;;;;;;;39.35;24.73;;;5.40;99.90;;;;;;20998434;28;20537;-48
2023/03/22 00:52:07;;;;;;;44.42;26.88;;;5.30;99.90;;;;;;20998003;28;20054;-49
2023/03/22 01:02:12;;;;;;;42.85;26.55;;;5.30;99.90;;;;;;20978779;28;20783;-51
2023/03/22 01:12:14;;;;;;;48.78;25.60;;;5.20;99.90;;;;;;20996956;28;20044;-50
2023/03/22 01:22:16;;;;;;;44.67;25.73;;;5.00;99.90;;;;;;20978121;28;20040;-46
2023/03/22 01:32:18;;;;;;;44.58;27.13;;;5.00;99.90;;;;;;20976876;28;20040;-52
2023/03/22 01:42:21;;;;;;;40.90;24.35;;;5.00;99.90;;;;;;20975991;28;20048;-52
2023/03/22 01:52:24;;;;;;;41.28;25.35;;;4.90;99.90;;;;;;20975564;28;20117;-49
2023/03/22 02:02:36;;;;;;;42.92;26.67;;;4.90;99.90;;;;;;20974174;28;20051;-49
2023/03/22 02:13:25;;;;;;;42.85;26.55;;;4.90;99.90;;;;;;20973290;28;20123;-50
2023/03/22 02:24:03;;;;;;;43.30;27.33;;;4.60;99.90;;;;;;20540464;28;20068;-49
2023/03/22 02:34:23;;;;;;;44.63;27.48;;;4.50;99.90;;;;;;20571255;28;20050;-51
2023/03/22 02:44:39;;;;;;;42.60;24.30;;;4.30;99.90;;;;;;20555002;28;20516;-50
2023/03/22 02:55:12;;;;;;;50.35;29.85;;;4.30;99.90;;;;;;20695593;28;20735;-48
2023/03/22 03:05:16;;;;;;;55.38;32.28;;;4.30;99.90;;;;;;20941403;28;20066;-50
2023/03/22 03:15:20;;;;;;;50.67;31.02;;;4.40;99.90;;;;;;20985551;28;20048;-51
2023/03/22 03:25:42;;;;;;;52.13;31.35;;;4.70;99.90;;;;;;20968268;28;20039;-49
2023/03/22 03:35:52;;;;;;;52.95;31.23;;;4.90;99.90;;;;;;20986571;28;20452;-49
2023/03/22 03:45:54;;;;;;;51.25;29.88;;;4.90;99.90;;;;;;20985600;28;20064;-52
2023/03/22 03:55:56;;;;;;;52.75;30.52;;;5.00;99.90;;;;;;20976172;28;20032;-50
2023/03/22 04:05:59;;;;;;;52.55;30.02;;;5.00;99.90;;;;;;20984215;28;20028;-50
2023/03/22 04:16:02;;;;;;;51.58;29.95;;;5.10;99.90;;;;;;20982728;28;20049;-49
2023/03/22 04:26:08;;;;;;;49.85;29.70;;;5.20;99.90;;;;;;20982141;28;20043;-50
2023/03/22 04:36:22;;;;;;;50.00;29.55;;;5.10;99.90;;;;;;20982207;28;20139;-48
2023/03/22 04:46:43;;;;;;;51.92;29.65;;;4.80;99.90;;;;;;20989077;28;20045;-50
2023/03/22 04:56:46;;;;;;;53.95;32.00;;;4.40;99.90;;;;;;20979534;28;20029;-48
2023/03/22 05:06:50;;;;;;;52.38;29.92;;;4.10;99.90;;;;;;20976765;28;20094;-48
2023/03/22 05:16:58;;;;;;;50.53;29.38;;;3.90;99.90;;;;;;20984843;28;20059;-50
2023/03/22 05:27:02;;;;;;;52.22;30.58;;;3.80;99.90;;;;;;20978269;28;20044;-47
2023/03/22 05:37:05;;;;;;;55.80;30.95;;;3.80;99.90;;;;;;20976265;28;20473;-48
2023/03/22 05:47:23;;;;;;;52.35;30.58;;;3.90;99.90;;;;;;20962644;28;20371;-46
2023/03/22 05:57:32;;;;;;;45.65;28.25;;;3.90;99.90;;;;;;20975163;28;20036;-46
2023/03/22 06:07:34;;;;;;;51.88;28.85;;;4.00;99.90;;;;;;20974249;28;20032;-47
2023/03/22 06:17:48;;;;;;;49.35;29.42;;;4.20;99.90;;;;;;20990769;28;20036;-48
2023/03/22 06:27:55;;;;;;;47.30;27.20;;;4.30;99.90;;;;;;20972619;28;20092;-50
2023/03/22 06:37:59;;;;;;;50.33;30.00;;;4.50;99.90;;;;;;20969709;28;20028;-49
2023/03/22 06:48:01;;;;;;;51.58;31.80;;;5.00;99.90;;;;;;20971435;28;20505;-51
2023/03/22 06:58:29;;;;;;;50.40;31.13;;;5.40;99.90;;;;;;20984977;28;20478;-51
2023/03/22 07:08:31;;;;;;;50.25;30.02;;;5.80;99.90;;;;;;20970007;28;20099;-48
2023/03/22 07:18:33;;;;;;;43.97;28.33;;;6.80;99.90;;;;;;20969902;28;20098;-49
2023/03/22 07:28:35;;;;;;;43.97;29.25;;;7.90;99.90;;;;;;20985567;28;20528;-52
2023/03/22 07:38:38;;;;;;;44.88;29.92;;;8.90;99.90;;;;;;20968002;28;20036;-51
2023/03/22 07:48:44;;;;;;;45.70;31.02;;;10.10;99.90;;;;;;20968283;28;20025;-49
2023/03/22 07:59:09;;;;;;;41.42;29.50;;;10.90;99.90;;;;;;20984097;28;20032;-52
2023/03/22 08:09:12;;;;;;;43.95;29.38;;;11.70;99.90;;;;;;20951235;28;20060;-51
2023/03/22 08:19:14;;;;;;;39.90;27.92;;;12.20;99.90;;;;;;20966563;28;20053;-49
2023/03/22 08:29:17;;;;;;;45.28;30.70;;;12.70;99.90;;;;;;20949145;28;20474;-51
2023/03/22 08:39:22;;;;;;;41.05;29.40;;;13.10;99.90;;;;;;20970666;28;20079;-51
2023/03/22 08:49:38;;;;;;;40.88;29.35;;;13.60;99.90;;;;;;20980913;28;20051;-49
2023/03/22 08:59:47;;;;;;;44.03;31.10;;;14.10;99.90;;;;;;20979305;28;20043;-53
2023/03/22 09:09:49;;;;;;;43.25;31.17;;;14.50;99.90;;;;;;20997534;28;20036;-52
2023/03/22 09:19:52;;;;;;;50.97;33.95;;;14.70;99.90;;;;;;20977866;28;20037;-50
2023/03/22 09:30:02;;;;;;;44.85;33.95;;;14.70;99.90;;;;;;20995387;28;20036;-52
2023/03/22 09:40:05;;;;;;;45.60;33.83;;;14.90;99.90;;;;;;20976480;28;20086;-52
2023/03/22 09:50:14;;;;;;;57.15;37.95;;;15.40;99.90;;;;;;20974912;28;20029;-49
2023/03/22 10:00:28;;;;;;;46.95;35.15;;;15.80;99.90;;;;;;20993536;28;20497;-52
2023/03/22 10:10:29;;;;;;;47.38;34.00;;;15.60;99.90;;;;;;20992134;28;20037;-49
2023/03/22 10:20:37;;;;;;;50.05;34.67;;;15.80;99.70;;;;;;20991001;28;20063;-49
2023/03/22 10:30:40;;;;;;;45.95;32.80;;;16.10;99.30;;;;;;20990245;28;20029;-49
2023/03/22 10:40:42;;;;;;;46.40;31.98;;;16.30;98.20;;;;;;20971318;28;20074;-49
2023/03/22 10:50:45;;;;;;;51.75;33.80;;;16.50;99.40;;;;;;20988758;28;20036;-51
2023/03/22 11:01:10;;;;;;;50.28;34.10;;;16.80;99.00;;;;;;20987575;28;20033;-49
2023/03/22 11:11:37;;;;;;;48.42;34.70;;;16.90;97.40;;;;;;20987282;28;20052;-51
2023/03/22 11:21:42;;;;;;;46.88;32.00;;;16.70;99.80;;;;;;20987607;28;20037;-50
2023/03/22 11:31:49;;;;;;;46.97;32.60;;;16.70;98.00;;;;;;20985945;28;20029;-48
2023/03/22 11:41:52;;;;;;;44.45;31.23;;;16.60;98.50;;;;;;20985584;28;20036;-53
2023/03/22 11:51:55;;;;;;;52.67;32.28;;;17.10;97.60;;;;;;20985809;28;20032;-52
2023/03/22 12:02:24;;;;;;;40.25;27.80;;;17.20;96.30;;;;;;20984862;28;20025;-48
2023/03/22 12:12:30;;;;;;;42.10;28.50;;;17.00;97.50;;;;;;20985457;28;20041;-50
2023/03/22 12:22:34;;;;;;;38.30;27.25;;;17.00;97.20;;;;;;21000795;28;20037;-49
2023/03/22 12:32:41;;;;;;;38.80;23.42;;;17.00;96.40;;;;;;20999945;28;20094;-53
2023/03/22 12:42:54;;;;;;;33.22;23.75;;;16.90;97.30;;;;;;20999066;28;20036;-48
2023/03/22 12:52:57;;;;;;;34.42;22.00;;;17.00;95.50;;;;;;20997548;28;20049;-51
2023/03/22 13:03:07;;;;;;;32.33;19.95;;;16.90;95.60;;;;;;20997427;28;20032;-49
2023/03/22 13:13:17;;;;;;;30.05;18.00;;;16.80;95.20;;;;;;20997260;28;20040;-52
2023/03/22 13:23:26;;;;;;;28.20;17.63;;;16.70;95.50;;;;;;20996341;28;20025;-51
2023/03/22 13:33:30;;;;;;;28.90;18.03;;;16.70;94.20;;;;;;20994719;28;20032;-47
2023/03/22 13:43:37;;;;;;;25.75;16.55;;;16.60;96.20;;;;;;20994212;28;20039;-50
2023/03/22 13:53:46;;;;;;;25.42;16.77;;;16.50;94.50;;;;;;20994396;28;20044;-53
2023/03/22 14:03:49;;;;;;;23.33;14.97;;;16.00;95.90;;;;;;20992745;28;20028;-48
2023/03/22 14:14:05;;;;;;;30.25;19.40;;;16.00;96.10;;;;;;20990270;28;20078;-51
2023/03/22 14:24:12;;;;;;;36.15;23.23;;;15.60;95.50;;;;;;20991054;28;20055;-53
2023/03/22 14:34:16;;;;;;;35.10;24.52;;;15.30;96.30;;;;;;20972202;28;20059;-52
2023/03/22 14:44:20;;;;;;;31.98;21.67;;;15.00;96.80;;;;;;20989082;28;20036;-51
2023/03/22 14:54:25;;;;;;;38.47;25.23;;;14.50;97.20;;;;;;20964270;28;20032;-48
2023/03/22 15:04:26;;;;;;;38.30;25.73;;;14.00;97.70;;;;;;20984815;28;20032;-49
2023/03/22 15:14:35;;;;;;;36.97;25.00;;;13.60;98.30;;;;;;20987187;28;20547;-51
2023/03/22 15:24:39;;;;;;;36.38;24.02;;;13.20;98.80;;;;;;20987007;28;20040;-50
2023/03/22 15:34:40;;;;;;;35.65;23.23;;;12.70;99.40;;;;;;20982590;28;20043;-50
2023/03/22 15:44:53;;;;;;;30.15;20.02;;;12.40;99.60;;;;;;20985436;28;20044;-56
2023/03/22 15:55:00;;;;;;;31.70;19.88;;;12.00;99.40;;;;;;20985711;28;20037;-49
2023/03/22 16:05:10;;;;;;;24.55;16.70;;;11.60;99.90;;;;;;20984216;28;20469;-49
2023/03/22 16:15:18;;;;;;;22.70;13.30;;;11.00;99.90;;;;;;20985081;28;20040;-47
2023/03/22 16:25:22;;;;;;;28.88;18.00;;;10.30;99.90;;;;;;20973857;28;20116;-48
2023/03/22 16:35:24;;;;;;;30.13;17.27;;;9.90;99.90;;;;;;20976796;28;20090;-46
2023/03/22 16:45:29;;;;;;;27.45;17.45;;;9.50;99.90;;;;;;20983365;28;20032;-52
2023/03/22 16:55:33;;;;;;;29.75;18.42;;;9.00;99.90;;;;;;20982943;28;20036;-52
2023/03/22 17:05:37;;;;;;;29.63;18.05;;;8.40;99.90;;;;;;20994693;28;20032;-49
2023/03/22 17:15:43;;;;;;;31.30;18.40;;;8.00;99.90;;;;;;20929921;28;20118;-50
2023/03/22 17:25:46;;;;;;;29.45;17.90;;;7.70;99.90;;;;;;20895341;28;20284;-47
2023/03/22 17:35:48;;;;;;;27.23;15.90;;;7.40;99.90;;;;;;20912067;28;20091;-46
2023/03/22 17:45:49;;;;;;;30.13;17.88;;;7.00;99.90;;;;;;20911570;28;20041;-50
2023/03/22 17:55:51;;;;;;;33.75;16.75;;;6.70;99.90;;;;;;20911781;28;20069;-49
2023/03/22 18:05:53;;;;;;;30.63;17.63;;;6.50;99.90;;;;;;20910255;28;20029;-47
2023/03/22 18:15:54;;;;;;;34.03;17.70;;;6.20;99.90;;;;;;20976985;28;20474;-52
2023/03/22 18:25:58;;;;;;;33.45;19.42;;;6.20;99.90;;;;;;20990797;28;20028;-48
2023/03/22 18:36:00;;;;;;;36.97;20.30;;;6.70;99.90;;;;;;20990470;28;20429;-48
2023/03/22 18:46:09;;;;;;;39.30;20.40;;;7.00;99.90;;;;;;20991114;28;20036;-49
2023/03/22 18:56:11;;;;;;;43.50;22.65;;;6.80;99.90;;;;;;20988678;28;20391;-50
2023/03/22 19:06:16;;;;;;;33.30;20.38;;;6.80;99.90;;;;;;20987892;28;20040;-50
2023/03/22 19:16:18;;;;;;;36.67;21.95;;;6.70;99.90;;;;;;20969042;28;20564;-47
2023/03/22 19:26:20;;;;;;;39.63;21.33;;;6.10;99.90;;;;;;20986359;28;20606;-46
2023/03/22 19:36:21;;;;;;;44.25;22.80;;;6.20;99.90;;;;;;20986404;28;20091;-48
2023/03/22 19:46:24;;;;;;;44.47;25.13;;;6.00;99.90;;;;;;20985832;28;20470;-46
2023/03/22 19:56:26;;;;;;;45.72;25.55;;;6.30;99.90;;;;;;20986161;28;20041;-52
2023/03/22 20:06:32;;;;;;;44.35;25.13;;;6.60;99.90;;;;;;20985295;28;20378;-47
2023/03/22 20:16:36;;;;;;;44.55;25.33;;;6.70;99.90;;;;;;20984659;28;20040;-50
2023/03/22 20:26:37;;;;;;;47.55;24.58;;;6.60;99.90;;;;;;20983893;28;20090;-51
2023/03/22 20:36:39;;;;;;;41.70;24.40;;;6.70;99.90;;;;;;20990271;28;20363;-47
2023/03/22 20:46:42;;;;;;;44.78;24.13;;;6.80;99.90;;;;;;20998123;28;20047;-50
2023/03/22 20:56:44;;;;;;;42.38;24.17;;;7.00;99.90;;;;;;20998594;28;20033;-51
2023/03/22 21:06:47;;;;;;;43.03;24.40;;;6.40;99.90;;;;;;20997981;28;20059;-48
2023/03/22 21:16:49;;;;;;;41.33;22.05;;;6.10;99.90;;;;;;20993952;28;20494;-47
2023/03/22 21:26:51;;;;;;;45.00;24.70;;;5.90;99.90;;;;;;20995330;28;20089;-51
2023/03/22 21:36:52;;;;;;;44.75;24.42;;;6.10;99.90;;;;;;20995543;28;20435;-50
2023/03/22 21:46:57;;;;;;;44.85;25.60;;;6.40;99.90;;;;;;20992843;28;20398;-47
2023/03/22 21:56:59;;;;;;;38.85;23.33;;;6.40;99.90;;;;;;20993244;28;20033;-51
2023/03/22 22:07:01;;;;;;;49.10;26.75;;;6.00;99.90;;;;;;20992974;28;20035;-51
2023/03/22 22:17:03;;;;;;;46.10;25.70;;;5.60;99.90;;;;;;20991675;28;20040;-47
2023/03/22 22:27:05;;;;;;;35.15;19.67;;;5.40;99.90;;;;;;20990983;28;20527;-48
2023/03/22 22:37:07;;;;;;;17.75;11.02;;;5.70;99.90;;;;;;20989750;28;20040;-49
2023/03/22 22:47:09;;;;;;;21.65;13.10;;;6.00;99.90;;;;;;20989272;28;20029;-48
2023/03/22 22:57:10;;;;;;;20.15;11.77;;;6.40;99.90;;;;;;20988334;28;20547;-47
2023/03/22 23:07:12;;;;;;;24.52;14.13;;;6.50;99.90;;;;;;20970187;28;20044;-47
2023/03/22 23:17:17;;;;;;;33.88;18.33;;;6.50;99.90;;;;;;20987425;28;20036;-49
2023/03/22 23:27:19;;;;;;;27.60;16.30;;;6.90;99.90;;;;;;20986647;28;20058;-48
2023/03/22 23:37:25;;;;;;;29.83;16.70;;;6.20;99.90;;;;;;20968583;28;20434;-50
2023/03/22 23:47:28;;;;;;;38.88;21.98;;;5.70;99.90;;;;;;20985972;28;20036;-51
2023/03/22 23:57:29;;;;;;;32.65;18.50;;;5.30;99.90;;;;;;20985271;28;20432;-47
